Time;durP1;ratioP1;P1;durP2;ratioP2;P2;SDS_P1;SDS_P2;PMS_P1;PMS_P2;Temp;Humidity;BMP_temperature;BMP_pressure;BME280_temperature;BME280_humidity;BME280_pressure;Samples;Min_cycle;Max_cycle;Signal;HPM_P1;HPM_P2
2023/04/09 00:01:48;;;;;;;45.00;38.70;;;9.30;99.90;;;;;;5147335;27;20424;-79
2023/04/09 00:04:14;;;;;;;47.07;39.60;;;9.40;99.90;;;;;;5146800;27;20994;-79
2023/04/09 00:06:40;;;;;;;43.37;37.63;;;9.30;99.90;;;;;;5147439;27;20839;-77
2023/04/09 00:09:05;;;;;;;41.90;37.40;;;9.30;99.90;;;;;;5128810;27;20404;-79
2023/04/09 00:11:31;;;;;;;42.77;38.10;;;9.30;99.90;;;;;;5146185;27;20393;-78
2023/04/09 00:13:57;;;;;;;40.23;35.93;;;9.30;99.90;;;;;;5146985;27;20446;-78
2023/04/09 00:16:23;;;;;;;40.92;36.50;;;9.30;99.90;;;;;;5146834;27;20415;-77
2023/04/09 00:18:49;;;;;;;44.00;37.53;;;9.30;99.90;;;;;;5146751;27;20393;-77
2023/04/09 00:21:15;;;;;;;41.92;37.17;;;9.20;99.90;;;;;;5128612;27;20424;-77
2023/04/09 00:23:41;;;;;;;40.92;36.38;;;9.30;99.90;;;;;;5146441;27;20416;-78
2023/04/09 00:26:07;;;;;;;48.05;38.65;;;9.30;99.90;;;;;;5146603;27;20430;-78
2023/04/09 00:28:33;;;;;;;41.60;36.67;;;9.30;99.90;;;;;;5127225;27;20426;-78
2023/04/09 00:30:59;;;;;;;42.67;38.00;;;9.20;99.90;;;;;;5146383;27;20436;-77
2023/04/09 00:33:25;;;;;;;42.40;37.85;;;9.20;99.90;;;;;;5146537;27;20425;-76
2023/04/09 00:35:51;;;;;;;44.88;38.60;;;9.20;99.90;;;;;;5146426;27;20934;-77
2023/04/09 00:38:16;;;;;;;45.38;37.33;;;9.20;99.90;;;;;;5146589;27;20405;-76
2023/04/09 00:40:42;;;;;;;43.55;38.95;;;9.20;99.90;;;;;;5127310;27;20501;-77
2023/04/09 00:43:08;;;;;;;50.28;39.38;;;9.10;99.90;;;;;;5145176;27;20449;-78
2023/04/09 00:45:35;;;;;;;44.28;38.90;;;9.10;99.90;;;;;;5127845;27;20429;-77
2023/04/09 00:48:00;;;;;;;44.70;39.95;;;9.10;99.90;;;;;;5127671;27;20436;-76
2023/04/09 00:50:26;;;;;;;49.90;43.08;;;9.00;99.90;;;;;;5146224;27;20432;-77
2023/04/09 00:52:52;;;;;;;62.17;47.10;;;9.10;99.90;;;;;;5110244;27;20477;-76
2023/04/09 00:55:19;;;;;;;53.97;45.65;;;9.00;99.90;;;;;;5146046;27;20405;-77
2023/04/09 00:57:45;;;;;;;58.72;47.33;;;9.00;99.90;;;;;;5144973;27;20457;-76
2023/04/09 01:00:12;;;;;;;58.00;47.95;;;8.90;99.90;;;;;;5145922;27;20408;-76
2023/04/09 01:02:38;;;;;;;59.78;48.78;;;8.90;99.90;;;;;;5145603;27;20425;-76
2023/04/09 01:05:05;;;;;;;61.83;50.42;;;8.90;99.90;;;;;;5140617;22;20962;-76
2023/04/09 01:07:50;;;;;;;58.78;48.50;;;8.90;99.90;;;;;;5043610;28;20402;-76
2023/04/09 01:10:38;;;;;;;65.55;49.47;;;8.90;99.90;;;;;;5043472;28;20509;-76
2023/04/09 01:13:07;;;;;;;62.40;48.67;;;8.80;99.90;;;;;;5043027;28;20505;-76
2023/04/09 01:15:38;;;;;;;59.90;49.38;;;8.90;99.90;;;;;;5044172;28;20409;-77
2023/04/09 01:18:06;;;;;;;63.37;49.30;;;8.80;99.90;;;;;;5044059;28;20722;-76
2023/04/09 01:20:39;;;;;;;60.30;49.42;;;8.70;99.90;;;;;;5026051;28;20504;-77
2023/04/09 01:23:29;;;;;;;63.90;51.00;;;8.80;99.90;;;;;;5043713;28;20427;-76
2023/04/09 01:26:31;;;;;;;64.82;52.13;;;8.70;99.90;;;;;;5043265;28;20421;-76
2023/04/09 01:28:58;;;;;;;67.90;53.40;;;8.80;99.90;;;;;;5043404;28;20418;-76
2023/04/09 01:31:32;;;;;;;65.57;53.05;;;8.70;99.90;;;;;;5043808;28;20401;-77
2023/04/09 01:33:59;;;;;;;66.28;53.80;;;8.70;99.90;;;;;;5043468;28;20804;-76
2023/04/09 01:36:27;;;;;;;67.72;52.20;;;8.70;99.90;;;;;;5025950;28;20504;-76
2023/04/09 01:38:55;;;;;;;68.47;52.40;;;8.50;99.90;;;;;;5043348;28;20405;-77
2023/04/09 01:41:22;;;;;;;66.85;50.60;;;8.50;99.90;;;;;;5043144;28;20444;-78
2023/04/09 01:43:50;;;;;;;68.05;52.45;;;8.50;99.90;;;;;;5025453;28;20425;-78
2023/04/09 01:46:18;;;;;;;65.40;51.30;;;8.40;99.90;;;;;;5043996;28;20386;-76
2023/04/09 01:48:45;;;;;;;65.78;51.78;;;8.40;99.90;;;;;;5026380;28;20826;-77
2023/04/09 01:51:13;;;;;;;68.32;52.97;;;8.40;99.90;;;;;;5025967;28;20409;-79
2023/04/09 01:53:39;;;;;;;69.03;52.42;;;8.40;99.90;;;;;;5025515;28;20413;-76
2023/04/09 01:56:06;;;;;;;69.30;51.85;;;8.50;99.90;;;;;;5043118;28;20412;-76
2023/04/09 01:58:35;;;;;;;73.40;55.03;;;8.50;99.90;;;;;;5043958;28;20410;-77
2023/04/09 02:01:36;;;;;;;69.68;53.10;;;8.30;99.90;;;;;;5044026;28;21184;-77
2023/04/09 02:04:07;;;;;;;64.90;52.15;;;8.50;99.90;;;;;;5033188;28;20433;-77
2023/04/09 02:06:45;;;;;;;71.55;54.67;;;8.40;99.90;;;;;;5043542;28;20489;-78
2023/04/09 02:09:12;;;;;;;71.03;53.38;;;8.40;99.90;;;;;;5025520;28;20409;-78
2023/04/09 02:11:41;;;;;;;70.47;52.95;;;8.40;99.90;;;;;;5042060;28;20429;-77
2023/04/09 02:14:09;;;;;;;67.03;51.40;;;8.40;99.90;;;;;;5043349;28;20420;-79
2023/04/09 02:16:36;;;;;;;70.55;51.50;;;8.20;99.90;;;;;;5009207;28;20961;-77
2023/04/09 02:19:02;;;;;;;66.78;50.50;;;8.30;99.90;;;;;;5043625;28;20410;-76
2023/04/09 02:21:28;;;;;;;68.30;47.73;;;8.20;99.90;;;;;;5043034;28;20432;-79
2023/04/09 02:23:54;;;;;;;65.38;47.13;;;8.30;99.90;;;;;;5024894;28;20886;-77
2023/04/09 02:26:21;;;;;;;61.72;45.75;;;8.20;99.90;;;;;;5046250;28;20476;-77
2023/04/09 02:28:46;;;;;;;60.83;45.28;;;8.20;99.90;;;;;;5028796;28;20835;-77
2023/04/09 02:31:12;;;;;;;61.40;46.20;;;8.20;99.90;;;;;;5047231;28;20500;-78
2023/04/09 02:33:38;;;;;;;60.63;46.38;;;8.20;99.90;;;;;;5028631;28;20424;-77
2023/04/09 02:36:04;;;;;;;52.10;39.92;;;8.20;99.90;;;;;;5029440;28;20448;-78
2023/04/09 02:38:30;;;;;;;50.80;38.83;;;8.20;99.90;;;;;;5029344;28;20445;-78
2023/04/09 02:40:56;;;;;;;50.63;38.25;;;8.30;99.90;;;;;;5045559;28;20409;-78
2023/04/09 02:43:22;;;;;;;54.25;40.85;;;8.30;99.90;;;;;;5028450;28;20483;-77
2023/04/09 02:45:48;;;;;;;51.10;40.30;;;8.40;99.90;;;;;;5046623;28;20808;-77
2023/04/09 02:48:14;;;;;;;46.10;36.92;;;8.30;99.90;;;;;;5028579;28;20764;-76
2023/04/09 02:50:39;;;;;;;48.08;36.55;;;8.20;99.90;;;;;;5028481;28;20402;-77
2023/04/09 02:53:05;;;;;;;49.15;36.67;;;8.10;99.90;;;;;;5046404;28;20681;-78
2023/04/09 02:55:31;;;;;;;47.50;35.20;;;8.00;99.90;;;;;;5028654;28;20496;-77
2023/04/09 02:57:56;;;;;;;44.70;35.25;;;7.90;99.90;;;;;;5045472;28;20598;-75
2023/04/09 03:00:22;;;;;;;48.05;35.42;;;8.00;99.90;;;;;;5046484;28;20409;-77
2023/04/09 03:02:48;;;;;;;45.40;35.00;;;7.90;99.90;;;;;;5046596;28;20421;-76
2023/04/09 03:05:13;;;;;;;44.63;33.70;;;7.80;99.90;;;;;;5046171;28;20677;-79
2023/04/09 03:07:39;;;;;;;47.80;35.90;;;7.80;99.90;;;;;;5028383;28;20413;-77
2023/04/09 03:10:05;;;;;;;47.80;37.07;;;7.80;99.90;;;;;;5028608;28;20413;-78
2023/04/09 03:12:30;;;;;;;46.23;34.93;;;7.80;99.90;;;;;;5027431;28;20915;-77
2023/04/09 03:14:56;;;;;;;44.20;34.67;;;7.80;99.90;;;;;;5046306;28;20459;-78
2023/04/09 03:17:25;;;;;;;45.27;34.73;;;8.00;99.90;;;;;;5046455;28;20416;-77
2023/04/09 03:19:51;;;;;;;48.60;36.45;;;8.10;99.90;;;;;;5045870;28;20401;-76
2023/04/09 03:22:17;;;;;;;48.55;35.72;;;8.00;99.90;;;;;;5046176;28;20420;-76
2023/04/09 03:24:43;;;;;;;46.03;36.00;;;7.80;99.90;;;;;;5028133;28;20421;-77
2023/04/09 03:27:08;;;;;;;49.72;38.13;;;8.00;99.90;;;;;;5027550;28;20416;-77
2023/04/09 03:29:34;;;;;;;49.13;36.38;;;8.00;99.90;;;;;;5046232;28;20413;-77
2023/04/09 03:32:00;;;;;;;48.92;36.03;;;8.10;99.90;;;;;;5045181;28;20408;-76
2023/04/09 03:34:26;;;;;;;47.75;35.70;;;8.00;99.90;;;;;;5045643;28;20919;-76
2023/04/09 03:36:51;;;;;;;51.03;37.33;;;8.00;99.90;;;;;;5045095;28;20410;-77
2023/04/09 03:39:17;;;;;;;46.22;35.28;;;8.10;99.90;;;;;;5045762;28;20767;-75
2023/04/09 03:41:43;;;;;;;50.77;36.90;;;8.00;99.90;;;;;;5044801;28;20417;-76
2023/04/09 03:44:08;;;;;;;48.60;36.93;;;8.20;99.90;;;;;;5045614;28;20468;-76
2023/04/09 03:46:34;;;;;;;47.23;36.97;;;8.20;99.90;;;;;;5045885;28;20398;-76
2023/04/09 03:48:59;;;;;;;50.83;37.73;;;8.00;99.90;;;;;;5045461;28;20406;-76
2023/04/09 03:51:26;;;;;;;48.13;36.92;;;7.90;99.90;;;;;;5027854;28;20520;-77
2023/04/09 03:53:51;;;;;;;51.08;36.95;;;8.10;99.90;;;;;;5011116;28;20482;-77
2023/04/09 03:56:17;;;;;;;50.20;35.17;;;8.00;99.90;;;;;;5044662;28;20410;-76
2023/04/09 03:58:43;;;;;;;49.93;36.90;;;8.10;99.90;;;;;;5045177;28;20454;-76
2023/04/09 04:01:08;;;;;;;47.80;36.17;;;8.00;99.90;;;;;;5045686;28;20393;-76
2023/04/09 04:03:34;;;;;;;45.03;35.65;;;8.00;99.90;;;;;;5045448;28;20853;-77
2023/04/09 04:06:01;;;;;;;47.45;36.20;;;8.00;99.90;;;;;;5045170;28;20486;-77
2023/04/09 04:08:27;;;;;;;47.80;36.17;;;8.00;99.90;;;;;;5045233;28;20492;-76
2023/04/09 04:10:53;;;;;;;44.88;36.13;;;8.10;99.90;;;;;;5044169;28;20397;-77
2023/04/09 04:13:19;;;;;;;46.42;34.22;;;8.00;99.90;;;;;;5045328;28;20451;-77
2023/04/09 04:15:44;;;;;;;46.47;35.70;;;8.10;99.90;;;;;;5026987;28;20405;-76
2023/04/09 04:18:10;;;;;;;49.80;37.50;;;7.90;99.90;;;;;;5045158;28;20452;-76
2023/04/09 04:20:37;;;;;;;47.23;36.20;;;8.00;99.90;;;;;;5044439;28;20425;-78
2023/04/09 04:23:03;;;;;;;49.33;37.55;;;7.90;99.90;;;;;;5045186;28;20429;-77
2023/04/09 04:25:29;;;;;;;49.78;37.58;;;7.90;99.90;;;;;;5044902;28;20394;-77
2023/04/09 04:27:55;;;;;;;47.90;35.47;;;7.90;99.90;;;;;;5043525;28;20418;-77
2023/04/09 04:30:21;;;;;;;47.67;36.50;;;7.90;99.90;;;;;;5045069;28;20436;-77
2023/04/09 04:32:47;;;;;;;47.55;38.38;;;7.90;99.90;;;;;;5044497;28;20402;-81
2023/04/09 04:35:13;;;;;;;48.85;36.00;;;7.90;99.90;;;;;;5044732;28;20994;-76
2023/04/09 04:37:39;;;;;;;46.92;36.33;;;7.80;99.90;;;;;;5026937;28;20414;-77
2023/04/09 04:40:06;;;;;;;52.45;37.72;;;7.90;99.90;;;;;;5044812;28;20447;-78
2023/04/09 04:42:32;;;;;;;48.03;37.05;;;7.80;99.90;;;;;;5044295;28;20417;-77
2023/04/09 04:44:58;;;;;;;48.05;35.88;;;7.80;99.90;;;;;;5044235;28;20996;-78
2023/04/09 04:47:24;;;;;;;47.90;37.20;;;7.80;99.90;;;;;;5044174;28;20598;-77
2023/04/09 04:49:50;;;;;;;49.67;35.87;;;7.90;99.90;;;;;;5044578;28;20428;-77
2023/04/09 04:52:15;;;;;;;44.93;35.97;;;7.90;99.90;;;;;;5044167;28;20428;-77
2023/04/09 04:54:41;;;;;;;45.93;35.03;;;7.80;99.90;;;;;;5025859;28;20954;-76
2023/04/09 04:57:07;;;;;;;46.27;35.33;;;7.90;99.90;;;;;;5043275;28;20483;-76
2023/04/09 04:59:35;;;;;;;48.63;36.55;;;7.80;99.90;;;;;;5044622;28;21007;-78
2023/04/09 05:02:01;;;;;;;53.07;39.13;;;7.90;99.90;;;;;;5044026;28;20409;-77
2023/04/09 05:04:27;;;;;;;45.65;36.60;;;7.90;99.90;;;;;;5043957;28;20479;-76
2023/04/09 05:06:52;;;;;;;47.90;37.05;;;8.00;99.90;;;;;;5044389;28;20417;-76
2023/04/09 05:09:18;;;;;;;47.97;36.73;;;7.80;99.90;;;;;;5043908;28;20409;-78
2023/04/09 05:11:43;;;;;;;45.87;36.30;;;7.90;99.90;;;;;;5025230;28;20413;-77
2023/04/09 05:14:09;;;;;;;48.33;36.40;;;7.90;99.90;;;;;;5043945;28;20409;-77
2023/04/09 05:16:35;;;;;;;48.57;38.00;;;7.90;99.90;;;;;;5044180;28;20479;-77
2023/04/09 05:19:01;;;;;;;45.73;34.77;;;8.00;99.90;;;;;;5026330;28;20425;-77
2023/04/09 05:21:26;;;;;;;48.37;37.33;;;8.00;99.90;;;;;;5044190;28;20400;-76
2023/04/09 05:23:53;;;;;;;47.97;36.83;;;8.10;99.90;;;;;;5043772;28;20663;-76
2023/04/09 05:26:18;;;;;;;46.33;36.70;;;8.00;99.90;;;;;;5042978;28;20428;-76
2023/04/09 05:28:44;;;;;;;49.77;36.83;;;7.90;99.90;;;;;;5043483;28;20417;-76
2023/04/09 05:31:11;;;;;;;51.67;35.37;;;7.90;99.90;;;;;;5043669;28;20431;-77
2023/04/09 05:33:38;;;;;;;52.42;38.17;;;7.90;99.90;;;;;;5025863;28;20405;-78
2023/04/09 05:36:04;;;;;;;47.40;35.92;;;7.80;99.90;;;;;;5009540;28;20401;-77
2023/04/09 05:38:30;;;;;;;46.58;36.33;;;7.90;99.90;;;;;;5043986;28;20460;-78
2023/04/09 05:40:56;;;;;;;46.92;36.08;;;7.90;99.90;;;;;;5042623;28;20905;-78
2023/04/09 05:43:22;;;;;;;47.30;36.60;;;8.00;99.90;;;;;;5025292;28;20799;-78
2023/04/09 05:45:47;;;;;;;47.20;35.10;;;7.90;99.90;;;;;;5043140;28;20406;-77
2023/04/09 05:48:13;;;;;;;45.13;34.67;;;8.00;99.90;;;;;;5043405;28;20749;-77
2023/04/09 05:50:39;;;;;;;42.50;35.00;;;8.10;99.90;;;;;;5043190;28;20469;-77
2023/04/09 05:53:05;;;;;;;44.00;34.37;;;8.00;99.90;;;;;;5026078;28;20889;-77
2023/04/09 05:55:31;;;;;;;41.73;34.20;;;8.00;99.90;;;;;;5024504;28;21015;-77
2023/04/09 05:57:57;;;;;;;40.03;32.40;;;8.10;99.90;;;;;;5043138;28;20954;-77
2023/04/09 06:00:23;;;;;;;37.10;31.33;;;8.00;99.90;;;;;;5046301;28;20413;-78
2023/04/09 06:02:49;;;;;;;35.70;31.20;;;7.90;99.90;;;;;;5046803;28;20912;-77
2023/04/09 06:05:14;;;;;;;37.17;30.80;;;8.00;99.90;;;;;;5047425;28;20424;-77
2023/04/09 06:07:40;;;;;;;38.53;30.97;;;8.00;99.90;;;;;;5046914;28;20435;-78
2023/04/09 06:10:07;;;;;;;37.80;32.00;;;8.10;99.90;;;;;;5046826;28;20895;-79
2023/04/09 06:12:35;;;;;;;35.13;28.88;;;8.20;99.90;;;;;;5045734;28;20494;-77
2023/04/09 06:15:02;;;;;;;35.80;30.33;;;8.10;99.90;;;;;;5047793;28;20500;-77
2023/04/09 06:17:28;;;;;;;36.47;29.80;;;8.00;99.90;;;;;;5047640;28;20413;-77
2023/04/09 06:19:54;;;;;;;34.22;28.65;;;8.00;99.90;;;;;;5046891;28;20489;-77
2023/04/09 06:22:20;;;;;;;36.37;30.07;;;8.10;99.90;;;;;;5029611;28;20507;-76
2023/04/09 06:24:45;;;;;;;35.73;30.93;;;8.00;99.90;;;;;;5029108;28;20417;-77
2023/04/09 06:27:11;;;;;;;34.87;29.70;;;7.80;99.90;;;;;;5046911;28;20776;-76
2023/04/09 06:29:36;;;;;;;35.17;30.35;;;7.80;99.90;;;;;;5046873;28;20404;-79
2023/04/09 06:32:02;;;;;;;44.42;30.90;;;7.90;99.90;;;;;;5047915;28;20405;-79
2023/04/09 06:34:28;;;;;;;34.45;29.13;;;7.90;99.90;;;;;;5029730;28;20412;-77
2023/04/09 06:36:54;;;;;;;38.17;31.63;;;7.90;99.90;;;;;;5047410;28;20409;-78
2023/04/09 06:39:20;;;;;;;37.67;31.93;;;8.10;99.90;;;;;;5047298;28;20415;-76
2023/04/09 06:41:46;;;;;;;39.57;31.20;;;8.00;99.90;;;;;;5045982;28;20409;-78
2023/04/09 06:44:12;;;;;;;37.43;31.37;;;8.00;99.90;;;;;;5046837;28;20911;-78
2023/04/09 06:46:38;;;;;;;39.03;32.00;;;7.90;99.90;;;;;;5047123;28;20886;-79
2023/04/09 06:49:04;;;;;;;37.95;32.10;;;8.00;99.90;;;;;;5046982;28;20413;-78
2023/04/09 06:51:30;;;;;;;40.90;33.15;;;8.00;99.90;;;;;;5046537;28;20481;-76
2023/04/09 06:53:56;;;;;;;39.13;31.80;;;8.00;99.90;;;;;;5046179;28;20991;-77
2023/04/09 06:56:22;;;;;;;37.30;30.38;;;8.00;99.90;;;;;;5045999;28;20404;-76
2023/04/09 06:58:47;;;;;;;38.70;32.03;;;8.10;99.90;;;;;;5046349;28;20911;-77
2023/04/09 07:01:13;;;;;;;39.10;32.13;;;8.10;99.90;;;;;;5047085;28;20409;-76
2023/04/09 07:03:39;;;;;;;36.37;31.27;;;8.10;99.90;;;;;;5045964;28;20429;-79
2023/04/09 07:06:05;;;;;;;38.40;31.88;;;8.10;99.90;;;;;;5047026;28;20394;-77
2023/04/09 07:08:30;;;;;;;37.60;32.67;;;8.10;99.90;;;;;;5046643;28;20405;-77
2023/04/09 07:10:56;;;;;;;37.42;30.45;;;8.00;99.90;;;;;;5044934;28;20821;-77
2023/04/09 07:13:22;;;;;;;39.22;32.05;;;8.00;99.90;;;;;;5046506;28;20413;-77
2023/04/09 07:15:47;;;;;;;34.83;30.77;;;8.30;99.90;;;;;;5045807;28;20413;-76
2023/04/09 07:18:13;;;;;;;39.90;33.60;;;8.10;99.90;;;;;;5046305;28;20409;-77
2023/04/09 07:20:39;;;;;;;38.67;32.57;;;8.30;99.90;;;;;;5045722;28;20733;-77
2023/04/09 07:23:04;;;;;;;39.25;32.40;;;8.20;99.90;;;;;;5045733;28;20426;-76
2023/04/09 07:25:31;;;;;;;35.58;31.13;;;8.30;99.90;;;;;;5027082;28;20768;-77
2023/04/09 07:27:57;;;;;;;35.75;29.95;;;8.30;99.90;;;;;;5045376;28;20406;-76
2023/04/09 07:30:22;;;;;;;37.63;31.52;;;8.30;99.90;;;;;;5046141;28;20409;-76
2023/04/09 07:32:48;;;;;;;36.72;31.13;;;8.40;99.90;;;;;;5045778;28;20410;-77
2023/04/09 07:35:14;;;;;;;36.07;30.17;;;8.40;99.90;;;;;;5045779;28;20738;-76
2023/04/09 07:37:40;;;;;;;36.53;31.95;;;8.20;99.90;;;;;;5045504;28;20435;-78
2023/04/09 07:40:07;;;;;;;36.57;31.97;;;8.20;99.90;;;;;;5044599;28;20501;-76
2023/04/09 07:42:33;;;;;;;36.08;29.90;;;8.20;99.90;;;;;;5045608;28;20436;-76
2023/04/09 07:44:59;;;;;;;34.92;29.75;;;8.30;99.90;;;;;;5045724;28;20769;-78
2023/04/09 07:47:25;;;;;;;37.65;32.05;;;8.40;99.90;;;;;;5045759;28;20401;-76
2023/04/09 07:49:51;;;;;;;36.40;29.38;;;8.30;99.90;;;;;;5045569;28;20795;-77
2023/04/09 07:52:18;;;;;;;34.78;30.02;;;8.30;99.90;;;;;;5045833;28;20429;-77
2023/04/09 07:54:44;;;;;;;36.35;29.80;;;8.60;99.90;;;;;;5045616;28;20413;-77
2023/04/09 07:57:09;;;;;;;34.58;29.88;;;8.50;99.90;;;;;;5044805;28;20937;-77
2023/04/09 07:59:35;;;;;;;35.20;30.23;;;8.50;99.90;;;;;;5045480;28;20466;-77
2023/04/09 08:02:01;;;;;;;33.63;28.65;;;8.60;99.90;;;;;;5045765;28;20405;-78
2023/04/09 08:04:27;;;;;;;33.33;29.30;;;8.60;99.90;;;;;;5045197;28;20433;-77
2023/04/09 08:06:53;;;;;;;34.63;29.80;;;8.60;99.90;;;;;;5045248;28;20409;-78
2023/04/09 08:09:20;;;;;;;33.58;28.83;;;8.70;99.90;;;;;;5027156;28;20492;-76
2023/04/09 08:11:46;;;;;;;32.73;29.07;;;8.80;99.90;;;;;;5043919;28;20953;-77
2023/04/09 08:14:14;;;;;;;36.00;28.65;;;8.80;99.90;;;;;;5045493;28;20819;-77
2023/04/09 08:16:41;;;;;;;37.72;31.42;;;8.80;99.90;;;;;;5044783;28;20959;-77
2023/04/09 08:19:08;;;;;;;32.42;28.58;;;8.80;99.90;;;;;;5044953;28;20437;-77
2023/04/09 08:21:41;;;;;;;34.50;30.10;;;8.80;99.90;;;;;;5044949;28;20405;-77
2023/04/09 08:24:10;;;;;;;32.17;28.60;;;9.00;99.90;;;;;;5043625;28;21007;-77
2023/04/09 08:26:36;;;;;;;38.88;30.05;;;8.90;99.90;;;;;;5044040;28;20408;-78
2023/04/09 08:29:01;;;;;;;31.90;28.58;;;8.60;99.90;;;;;;5044638;28;20413;-78
2023/04/09 08:31:27;;;;;;;34.55;29.27;;;8.70;99.90;;;;;;5026920;28;20413;-76
2023/04/09 08:33:53;;;;;;;38.22;30.38;;;8.70;99.90;;;;;;5044577;28;20888;-77
2023/04/09 08:36:19;;;;;;;36.78;28.77;;;8.60;99.90;;;;;;5044401;28;20405;-77
2023/04/09 08:38:46;;;;;;;34.03;30.33;;;8.70;99.90;;;;;;5026389;28;20482;-77
2023/04/09 08:41:30;;;;;;;33.50;29.35;;;8.80;99.90;;;;;;5025487;28;20749;-75
2023/04/09 08:43:57;;;;;;;36.10;30.35;;;8.70;99.90;;;;;;5044239;28;20459;-77
2023/04/09 08:46:23;;;;;;;34.65;29.52;;;8.90;99.90;;;;;;5010422;28;20417;-77
2023/04/09 08:48:50;;;;;;;33.67;29.83;;;8.90;99.90;;;;;;5044216;28;20409;-77
2023/04/09 08:51:18;;;;;;;36.25;30.00;;;8.80;99.90;;;;;;5044297;28;20401;-78
2023/04/09 08:53:46;;;;;;;38.15;31.05;;;8.80;99.90;;;;;;5043944;28;20421;-77
2023/04/09 08:56:15;;;;;;;36.17;30.52;;;8.80;99.90;;;;;;5043455;28;20489;-78
2023/04/09 08:58:45;;;;;;;36.97;31.60;;;8.80;99.90;;;;;;5044062;28;20459;-76
2023/04/09 09:01:18;;;;;;;34.88;29.38;;;8.90;99.90;;;;;;5044511;28;20429;-77
2023/04/09 09:04:00;;;;;;;35.60;29.05;;;9.10;99.90;;;;;;5043376;28;20527;-77
2023/04/09 09:06:30;;;;;;;37.63;30.88;;;9.30;99.90;;;;;;5044230;28;20420;-77
2023/04/09 09:09:06;;;;;;;35.05;30.33;;;9.60;99.90;;;;;;5043830;28;20726;-77
2023/04/09 09:11:34;;;;;;;37.20;30.93;;;9.30;99.90;;;;;;5043452;28;20477;-77
2023/04/09 09:14:07;;;;;;;36.03;30.02;;;9.40;99.90;;;;;;5043623;28;21058;-78
2023/04/09 09:16:41;;;;;;;36.10;30.83;;;9.40;99.90;;;;;;5044340;28;20417;-77
2023/04/09 09:19:23;;;;;;;36.83;31.20;;;9.70;99.90;;;;;;5043861;28;20424;-77
2023/04/09 09:22:00;;;;;;;37.87;32.10;;;9.90;99.90;;;;;;5044079;28;20717;-76
2023/04/09 09:24:26;;;;;;;33.00;29.20;;;9.90;99.90;;;;;;5044140;28;20447;-77
2023/04/09 09:26:53;;;;;;;34.93;30.80;;;10.00;99.90;;;;;;5042881;28;20496;-77
2023/04/09 09:29:20;;;;;;;38.73;33.10;;;9.90;99.90;;;;;;5043911;28;20451;-77
2023/04/09 09:31:51;;;;;;;37.42;31.63;;;9.80;99.90;;;;;;5025752;28;20450;-77
2023/04/09 09:34:18;;;;;;;37.70;31.20;;;9.70;99.90;;;;;;5026022;28;20549;-78
2023/04/09 09:36:45;;;;;;;37.80;32.70;;;9.90;99.90;;;;;;5044023;28;20412;-76
2023/04/09 09:39:12;;;;;;;38.88;32.28;;;10.10;99.90;;;;;;5026049;28;20413;-77
2023/04/09 09:41:39;;;;;;;40.20;33.28;;;10.10;99.90;;;;;;5042651;28;20409;-78
2023/04/09 09:44:06;;;;;;;36.00;30.60;;;9.90;99.90;;;;;;5043773;28;20460;-76
2023/04/09 09:46:37;;;;;;;39.65;33.65;;;10.00;99.90;;;;;;5043811;28;20918;-78
2023/04/09 09:49:03;;;;;;;36.70;31.02;;;9.80;99.90;;;;;;5026327;28;20406;-78
2023/04/09 09:51:31;;;;;;;38.20;31.83;;;10.10;99.90;;;;;;5043755;28;20402;-78
2023/04/09 09:53:57;;;;;;;36.60;31.50;;;10.10;99.90;;;;;;5043125;28;20492;-76
2023/04/09 09:56:44;;;;;;;35.80;30.88;;;10.20;99.90;;;;;;5043396;28;20418;-78
2023/04/09 09:59:20;;;;;;;36.65;31.27;;;10.20;99.90;;;;;;5009865;28;20505;-77
2023/04/09 10:01:48;;;;;;;37.13;31.47;;;10.40;99.90;;;;;;5043753;28;20401;-78
2023/04/09 10:04:18;;;;;;;39.25;33.33;;;10.30;99.90;;;;;;5025800;28;20429;-78
2023/04/09 10:06:44;;;;;;;36.83;31.67;;;10.40;99.90;;;;;;5043458;28;20936;-78
2023/04/09 10:09:10;;;;;;;38.30;32.53;;;10.30;99.90;;;;;;5044035;28;20761;-78
2023/04/09 10:11:37;;;;;;;37.22;32.97;;;10.30;99.90;;;;;;5042595;28;20409;-79
2023/04/09 10:14:06;;;;;;;39.60;34.30;;;10.40;99.90;;;;;;5025382;28;20463;-75
2023/04/09 10:16:32;;;;;;;39.35;33.22;;;10.40;99.90;;;;;;5026602;28;20443;-78
2023/04/09 10:19:00;;;;;;;38.13;32.13;;;10.20;99.90;;;;;;5043259;28;20477;-77
2023/04/09 10:21:29;;;;;;;37.00;32.07;;;10.50;99.90;;;;;;5025244;28;21342;-77
2023/04/09 10:23:55;;;;;;;34.22;30.52;;;10.80;99.90;;;;;;5042991;28;20437;-78
2023/04/09 10:26:26;;;;;;;37.53;32.37;;;11.00;99.90;;;;;;5042749;28;20731;-77
2023/04/09 10:29:07;;;;;;;34.43;30.43;;;11.40;99.90;;;;;;5043358;28;20470;-78
2023/04/09 10:31:46;;;;;;;35.80;31.30;;;11.00;99.90;;;;;;5043896;28;20405;-77
2023/04/09 10:34:15;;;;;;;34.97;30.25;;;11.40;99.90;;;;;;5025482;28;20448;-77
2023/04/09 10:36:59;;;;;;;40.45;32.35;;;11.60;99.90;;;;;;5043331;28;20492;-77
2023/04/09 10:39:30;;;;;;;36.08;31.40;;;11.60;99.90;;;;;;5043236;28;20425;-77
2023/04/09 10:41:58;;;;;;;36.20;31.20;;;11.60;99.90;;;;;;5042611;28;20405;-78
2023/04/09 10:44:27;;;;;;;32.38;28.08;;;11.50;99.90;;;;;;5042932;28;20425;-78
2023/04/09 10:46:53;;;;;;;36.08;30.63;;;11.40;99.90;;;;;;5045473;28;20815;-78
2023/04/09 10:49:24;;;;;;;31.60;28.17;;;11.40;99.90;;;;;;5028757;28;20409;-78
2023/04/09 10:52:04;;;;;;;32.83;29.33;;;11.80;99.90;;;;;;5046203;28;20420;-77
2023/04/09 10:54:33;;;;;;;33.92;28.30;;;12.00;99.90;;;;;;5028270;28;20826;-78
2023/04/09 10:57:07;;;;;;;31.05;27.73;;;12.00;99.90;;;;;;5046277;28;20539;-78
2023/04/09 11:00:02;;;;;;;33.05;28.73;;;11.70;99.90;;;;;;5047040;28;20828;-77
2023/04/09 11:02:37;;;;;;;33.22;29.33;;;11.80;99.90;;;;;;5033497;28;20903;-78
2023/04/09 11:05:11;;;;;;;32.37;28.77;;;11.90;99.90;;;;;;5046531;28;20946;-76
2023/04/09 11:07:43;;;;;;;31.88;28.40;;;12.10;99.90;;;;;;5046128;28;20927;-78
2023/04/09 11:10:09;;;;;;;33.72;28.73;;;12.10;99.90;;;;;;5045479;28;20420;-78
2023/04/09 11:12:34;;;;;;;30.98;27.67;;;11.70;99.90;;;;;;5028905;28;20436;-77
2023/04/09 11:15:00;;;;;;;31.10;27.58;;;12.20;99.90;;;;;;5046056;28;20405;-77
2023/04/09 11:17:26;;;;;;;30.93;27.67;;;12.10;99.90;;;;;;5046576;28;20768;-78
2023/04/09 11:19:52;;;;;;;31.90;27.73;;;12.50;99.90;;;;;;5046054;28;20486;-77
2023/04/09 11:22:17;;;;;;;33.38;28.55;;;12.90;99.90;;;;;;5046154;28;20755;-77
2023/04/09 11:24:49;;;;;;;34.78;28.20;;;13.30;99.90;;;;;;5011190;28;20468;-79
2023/04/09 11:27:18;;;;;;;28.90;25.77;;;13.10;99.90;;;;;;5046472;28;20401;-76
2023/04/09 11:29:44;;;;;;;30.27;26.33;;;12.40;99.90;;;;;;5046276;28;20409;-78
2023/04/09 11:32:11;;;;;;;28.48;25.27;;;12.90;99.90;;;;;;5046472;28;20767;-77
2023/04/09 11:34:36;;;;;;;29.38;26.08;;;13.10;99.90;;;;;;5046003;28;20775;-78
2023/04/09 11:37:07;;;;;;;29.50;26.30;;;12.90;99.90;;;;;;5046906;28;20413;-78
2023/04/09 11:39:36;;;;;;;32.17;27.33;;;13.10;99.90;;;;;;5045539;28;21014;-78
2023/04/09 11:42:01;;;;;;;29.45;26.08;;;12.70;99.90;;;;;;5046879;28;20401;-77
2023/04/09 11:44:27;;;;;;;27.70;24.70;;;13.30;99.90;;;;;;5028107;28;20428;-77
2023/04/09 11:46:53;;;;;;;27.27;23.70;;;13.60;99.90;;;;;;5046545;28;20405;-78
2023/04/09 11:49:19;;;;;;;27.73;24.73;;;13.40;99.90;;;;;;5046582;28;20413;-79
2023/04/09 11:51:44;;;;;;;26.93;24.03;;;13.70;99.90;;;;;;5045898;28;20496;-78
2023/04/09 11:54:11;;;;;;;27.87;24.10;;;13.70;99.90;;;;;;5046486;28;20543;-78
2023/04/09 11:56:36;;;;;;;27.73;24.70;;;14.10;99.90;;;;;;5045292;28;20404;-79
2023/04/09 11:59:02;;;;;;;28.10;25.20;;;14.00;99.90;;;;;;5047259;28;20417;-77
2023/04/09 12:01:32;;;;;;;27.80;23.98;;;14.10;99.90;;;;;;5047111;28;20401;-77
2023/04/09 12:03:59;;;;;;;24.80;22.20;;;13.70;99.90;;;;;;5046340;28;20429;-79
2023/04/09 12:06:25;;;;;;;25.67;23.02;;;13.90;99.90;;;;;;5046928;28;20405;-78
2023/04/09 12:09:00;;;;;;;23.05;20.75;;;14.50;99.90;;;;;;5028231;28;20919;-79
2023/04/09 12:11:28;;;;;;;24.60;22.00;;;14.10;99.90;;;;;;5047754;28;20417;-76
2023/04/09 12:14:04;;;;;;;26.40;23.67;;;14.20;99.90;;;;;;5049639;28;20401;-78
2023/04/09 12:16:31;;;;;;;23.65;21.08;;;14.60;99.90;;;;;;5051237;28;20492;-79
2023/04/09 12:19:05;;;;;;;25.35;22.67;;;14.90;99.90;;;;;;5048580;28;20428;-76
2023/04/09 12:21:55;;;;;;;23.48;20.98;;;14.90;99.90;;;;;;5030091;28;20414;-77
2023/04/09 12:24:23;;;;;;;26.70;22.33;;;15.20;99.90;;;;;;5048456;28;20426;-80
2023/04/09 12:26:49;;;;;;;24.13;21.55;;;15.40;99.90;;;;;;5048902;28;20412;-80
2023/04/09 12:29:17;;;;;;;24.02;21.50;;;15.50;99.90;;;;;;5014186;28;20911;-78
2023/04/09 12:31:44;;;;;;;24.45;21.98;;;15.40;99.90;;;;;;5048644;28;20413;-78
2023/04/09 12:34:10;;;;;;;27.60;22.80;;;15.40;99.90;;;;;;5048076;28;20417;-76
2023/04/09 12:36:37;;;;;;;25.53;23.03;;;15.50;99.90;;;;;;5048568;28;20463;-80
2023/04/09 12:39:03;;;;;;;24.58;21.65;;;15.60;99.90;;;;;;5049130;28;20602;-78